Time;durP1;ratioP1;P1;durP2;ratioP2;P2;SDS_P1;SDS_P2;PMS_P1;PMS_P2;Temp;Humidity;BMP_temperature;BMP_pressure;BME280_temperature;BME280_humidity;BME280_pressure;Samples;Min_cycle;Max_cycle;Signal;HPM_P1;HPM_P2
2022/07/05 00:00:19;;;;;;;4.60;2.00;;;;;;;30.33;29.20;96787.44;5074994;28;20035;-27
2022/07/05 00:02:44;;;;;;;2.58;2.00;;;;;;;30.35;29.10;96790.44;5074903;28;20062;-26
2022/07/05 00:05:10;;;;;;;2.95;1.73;;;;;;;30.35;28.66;96782.78;5075044;28;20021;-26
2022/07/05 00:07:35;;;;;;;4.28;1.90;;;;;;;30.36;28.88;96783.53;5074663;28;20052;-26
2022/07/05 00:10:01;;;;;;;2.60;1.77;;;;;;;30.38;28.70;96777.38;5073995;28;20031;-26
2022/07/05 00:12:31;;;;;;;5.28;1.80;;;;;;;30.41;29.21;96768.66;5074717;28;20036;-26
2022/07/05 00:14:57;;;;;;;2.75;1.75;;;;;;;30.48;28.55;96767.19;5074849;28;20020;-26
2022/07/05 00:17:23;;;;;;;3.28;1.75;;;;;;;30.40;28.33;96764.34;5074603;28;20031;-28
2022/07/05 00:19:48;;;;;;;5.28;2.08;;;;;;;30.31;29.03;96770.44;5074780;28;20373;-26
2022/07/05 00:22:14;;;;;;;3.05;1.80;;;;;;;30.36;28.80;96764.69;5074503;28;20020;-26
2022/07/05 00:24:40;;;;;;;2.90;1.70;;;;;;;30.37;28.32;96757.06;5074756;28;20386;-26
2022/07/05 00:27:06;;;;;;;3.35;1.88;;;;;;;30.41;28.62;96762.31;5074487;28;20116;-26
2022/07/05 00:29:31;;;;;;;3.67;1.73;;;;;;;30.27;28.85;96754.03;5074332;28;20099;-26
2022/07/05 00:31:57;;;;;;;2.38;1.67;;;;;;;30.35;28.28;96754.81;5074409;28;20099;-26
2022/07/05 00:34:23;;;;;;;3.47;1.50;;;;;;;30.44;28.54;96755.59;5074411;28;20028;-27
2022/07/05 00:36:49;;;;;;;2.72;1.60;;;;;;;30.24;28.71;96746.72;5074615;28;20070;-27
2022/07/05 00:39:15;;;;;;;2.53;1.75;;;;;;;30.28;28.65;96749.94;5074431;28;20428;-26
2022/07/05 00:41:41;;;;;;;2.53;1.67;;;;;;;30.34;28.08;96756.09;5074327;28;20020;-27
2022/07/05 00:44:10;;;;;;;2.90;1.52;;;;;;;30.42;28.17;96752.59;5074308;28;20086;-26
2022/07/05 00:46:37;;;;;;;3.35;1.60;;;;;;;30.48;27.89;96758.78;5074028;28;20470;-26
2022/07/05 00:49:06;;;;;;;2.08;1.60;;;;;;;30.45;27.85;96759.88;5073994;28;20029;-26
2022/07/05 00:51:35;;;;;;;2.92;1.60;;;;;;;30.39;28.56;96754.47;5074069;28;20031;-28
2022/07/05 00:54:01;;;;;;;9.32;1.85;;;;;;;30.47;27.63;96754.47;5073930;28;20023;-26
2022/07/05 00:56:27;;;;;;;2.97;1.60;;;;;;;30.49;27.89;96758.22;5073987;28;20386;-26
2022/07/05 00:58:53;;;;;;;2.47;1.80;;;;;;;30.47;28.15;96755.22;5073867;28;20055;-27
2022/07/05 01:01:19;;;;;;;4.15;1.60;;;;;;;30.50;28.14;96750.59;5073672;28;20038;-26
2022/07/05 01:03:45;;;;;;;3.50;1.80;;;;;;;30.40;27.82;96738.41;5073328;28;20024;-26
2022/07/05 01:06:12;;;;;;;2.58;1.58;;;;;;;30.47;27.55;96737.69;5073442;28;20051;-26
2022/07/05 01:08:40;;;;;;;4.35;1.80;;;;;;;30.42;27.85;96728.16;5073774;28;20036;-26
2022/07/05 01:11:06;;;;;;;2.35;1.42;;;;;;;30.40;27.20;96722.38;5072267;28;20475;-27
2022/07/05 01:13:32;;;;;;;4.45;1.55;;;;;;;30.44;27.75;96724.78;5073693;28;20032;-26
2022/07/05 01:15:59;;;;;;;2.70;1.60;;;;;;;30.41;27.71;96715.47;5073529;28;20020;-26
2022/07/05 01:18:25;;;;;;;4.80;1.60;;;;;;;30.43;27.22;96720.50;5071233;28;20044;-26
2022/07/05 01:20:51;;;;;;;2.70;1.50;;;;;;;30.47;27.46;96720.91;5073527;28;20021;-26
2022/07/05 01:23:18;;;;;;;2.67;1.70;;;;;;;30.47;27.13;96720.91;5073529;28;20028;-27
2022/07/05 01:25:44;;;;;;;3.25;1.40;;;;;;;30.50;27.30;96717.00;5073472;28;20489;-26
2022/07/05 01:28:10;;;;;;;2.60;1.60;;;;;;;30.51;27.02;96710.09;5073810;28;20030;-26
2022/07/05 01:30:36;;;;;;;4.13;1.40;;;;;;;30.47;27.40;96710.47;5073220;28;20107;-26
2022/07/05 01:33:04;;;;;;;2.42;1.77;;;;;;;30.48;26.93;96711.22;5073467;28;20031;-26
2022/07/05 01:35:30;;;;;;;2.50;1.48;;;;;;;30.41;26.91;96706.34;5073371;28;20077;-26
2022/07/05 01:37:55;;;;;;;3.53;1.50;;;;;;;30.49;26.93;96704.31;5073261;28;20021;-26
2022/07/05 01:40:21;;;;;;;3.05;1.60;;;;;;;30.46;27.24;96703.34;5073510;28;20074;-26
2022/07/05 01:42:47;;;;;;;4.10;2.00;;;;;;;30.41;26.85;96714.72;5073441;28;20399;-26
2022/07/05 01:45:38;;;;;;;5.38;1.83;;;;;;;30.40;27.44;96710.44;5073355;28;20370;-26
2022/07/05 01:48:00;;;;;;;2.78;1.70;;;;;;;30.45;26.94;96715.09;5073060;28;20085;-26
2022/07/05 01:50:28;;;;;;;3.70;1.98;;;;;;;30.42;26.73;96708.56;5073211;28;21995;-26
2022/07/05 01:52:58;;;;;;;3.90;1.70;;;;;;;30.48;26.85;96703.56;5073045;28;20024;-26
2022/07/05 01:55:24;;;;;;;3.33;1.67;;;;;;;30.48;26.36;96711.22;5073485;28;20025;-26
2022/07/05 01:57:50;;;;;;;6.43;2.05;;;;;;;30.44;26.67;96696.81;5073110;28;20074;-26
2022/07/05 02:00:16;;;;;;;5.22;1.65;;;;;;;30.42;26.81;96702.22;5073223;28;20036;-27
2022/07/05 02:02:42;;;;;;;5.82;2.30;;;;;;;30.39;26.89;96697.75;5073262;28;20463;-26
2022/07/05 02:05:07;;;;;;;4.90;1.90;;;;;;;30.41;26.94;96700.75;5073272;28;20588;-26
2022/07/05 02:07:33;;;;;;;3.42;1.90;;;;;;;30.41;27.01;96700.75;5072882;28;20044;-26
2022/07/05 02:09:58;;;;;;;4.03;1.70;;;;;;;30.41;26.55;96698.69;5073052;28;20110;-27
2022/07/05 02:12:23;;;;;;;6.63;1.90;;;;;;;30.33;26.70;96701.44;5072692;28;20024;-28
2022/07/05 02:14:49;;;;;;;3.95;1.73;;;;;;;30.36;27.17;96711.53;5076605;28;20122;-26
2022/07/05 02:17:15;;;;;;;3.45;1.75;;;;;;;30.35;26.79;96709.28;5077041;28;20017;-27
2022/07/05 02:19:41;;;;;;;4.32;2.20;;;;;;;30.31;27.05;96715.22;5077302;28;20111;-27
2022/07/05 02:22:07;;;;;;;6.18;1.95;;;;;;;30.33;26.57;96709.84;5076907;28;20101;-26
2022/07/05 02:24:33;;;;;;;3.50;2.10;;;;;;;30.33;26.52;96704.25;5076853;28;20043;-26
2022/07/05 02:26:59;;;;;;;2.67;1.80;;;;;;;30.35;26.82;96700.88;5076602;28;20459;-26
2022/07/05 02:29:24;;;;;;;7.97;1.95;;;;;;;30.31;27.25;96712.44;5076897;28;20528;-26
2022/07/05 02:31:50;;;;;;;3.90;1.80;;;;;;;30.30;26.22;96713.72;5076607;28;20029;-26
2022/07/05 02:34:16;;;;;;;4.82;1.60;;;;;;;30.25;26.59;96709.06;5076595;28;20027;-26
2022/07/05 02:36:43;;;;;;;5.85;2.10;;;;;;;30.24;26.78;96718.75;5076576;28;20024;-28
2022/07/05 02:39:09;;;;;;;3.63;1.52;;;;;;;30.27;26.78;96716.91;5076466;28;20397;-26
2022/07/05 02:41:34;;;;;;;5.13;1.75;;;;;;;30.26;27.00;96716.16;5076812;28;20012;-26
2022/07/05 02:43:59;;;;;;;4.53;1.90;;;;;;;30.27;27.15;96708.50;5075513;28;20035;-26
2022/07/05 02:46:25;;;;;;;5.53;2.15;;;;;;;30.23;26.89;96722.84;5077043;28;20098;-26
2022/07/05 02:48:52;;;;;;;4.20;1.95;;;;;;;30.23;26.49;96714.44;5076350;28;20050;-26
2022/07/05 02:51:18;;;;;;;6.10;1.80;;;;;;;30.21;26.71;96716.31;5076544;28;20028;-26
2022/07/05 02:53:43;;;;;;;3.83;1.80;;;;;;;30.20;27.09;96712.75;5076566;28;20032;-27
2022/07/05 02:56:09;;;;;;;5.15;1.70;;;;;;;30.23;27.01;96717.25;5076343;28;20075;-27
2022/07/05 02:58:34;;;;;;;5.25;1.92;;;;;;;30.22;27.22;96717.81;5076496;28;20036;-26
2022/07/05 03:01:00;;;;;;;3.30;1.58;;;;;;;30.20;26.55;96715.56;5076289;28;20489;-26
2022/07/05 03:03:25;;;;;;;8.20;2.45;;;;;;;30.18;26.82;96709.75;5076017;28;20051;-26
2022/07/05 03:05:51;;;;;;;6.65;2.08;;;;;;;30.16;26.67;96709.59;5075838;28;20044;-26
2022/07/05 03:08:16;;;;;;;8.15;2.05;;;;;;;30.16;27.17;96714.44;5076149;28;20108;-26
2022/07/05 03:10:41;;;;;;;7.03;1.90;;;;;;;30.15;26.89;96707.34;5075907;28;20028;-26
2022/07/05 03:13:07;;;;;;;4.05;1.95;;;;;;;30.12;26.76;96709.19;5076018;28;20028;-26
2022/07/05 03:15:32;;;;;;;4.68;1.85;;;;;;;30.15;26.38;96710.88;5075840;28;20020;-26
2022/07/05 03:17:58;;;;;;;4.80;2.08;;;;;;;30.13;26.89;96713.47;5075956;28;20106;-26
2022/07/05 03:20:23;;;;;;;4.93;2.20;;;;;;;30.08;27.20;96719.22;5075864;28;20024;-26
2022/07/05 03:22:49;;;;;;;3.38;1.70;;;;;;;30.09;26.85;96718.66;5075682;28;20032;-28
2022/07/05 03:25:14;;;;;;;4.65;2.00;;;;;;;30.16;26.81;96715.19;5075007;28;20021;-26
2022/07/05 03:27:40;;;;;;;8.30;2.65;;;;;;;30.17;26.52;96708.25;5075724;28;20024;-27
2022/07/05 03:30:06;;;;;;;4.75;2.00;;;;;;;30.15;27.25;96707.34;5075602;28;20032;-26
2022/07/05 03:32:31;;;;;;;6.68;2.53;;;;;;;30.11;26.58;96707.69;5075478;28;20072;-26
2022/07/05 03:34:57;;;;;;;5.70;2.22;;;;;;;30.14;27.22;96708.63;5076003;28;20020;-26
2022/07/05 03:37:22;;;;;;;7.95;2.47;;;;;;;30.05;27.11;96712.66;5074419;28;20033;-26
2022/07/05 03:39:48;;;;;;;4.68;2.00;;;;;;;30.03;26.98;96712.50;5075537;28;20037;-26
2022/07/05 03:42:13;;;;;;;5.55;2.17;;;;;;;30.05;27.33;96721.06;5075561;28;20028;-26
2022/07/05 03:44:38;;;;;;;7.85;2.55;;;;;;;30.01;27.17;96712.28;5075295;28;20067;-27
2022/07/05 03:47:04;;;;;;;5.80;1.88;;;;;;;30.06;27.45;96716.97;5074026;28;20027;-26
2022/07/05 03:49:29;;;;;;;2.78;1.73;;;;;;;30.06;27.17;96716.97;5075332;28;20039;-27
2022/07/05 03:52:01;;;;;;;4.85;2.25;;;;;;;30.08;27.43;96719.97;5075128;28;20070;-26
2022/07/05 03:54:26;;;;;;;4.82;1.70;;;;;;;30.03;27.51;96726.47;5075091;28;20486;-28
2022/07/05 03:56:52;;;;;;;3.35;2.00;;;;;;;30.03;27.52;96725.72;5075484;28;20025;-26
2022/07/05 03:59:17;;;;;;;3.92;2.28;;;;;;;30.05;27.55;96721.06;5075221;28;20023;-27
2022/07/05 04:01:43;;;;;;;5.88;2.35;;;;;;;30.06;27.59;96719.75;5074131;28;20046;-26
2022/07/05 04:04:08;;;;;;;4.70;1.83;;;;;;;30.04;27.50;96721.63;5074867;28;20020;-26
2022/07/05 04:06:33;;;;;;;5.63;2.10;;;;;;;29.99;27.66;96720.47;5074953;28;20498;-27
2022/07/05 04:08:59;;;;;;;6.85;2.42;;;;;;;30.01;27.55;96720.69;5074994;28;20367;-26
2022/07/05 04:11:24;;;;;;;4.78;2.35;;;;;;;30.02;27.35;96724.22;5074792;28;20032;-26
2022/07/05 04:13:50;;;;;;;4.40;1.75;;;;;;;30.01;27.91;96731.88;5074988;28;20497;-26
2022/07/05 04:16:15;;;;;;;4.47;2.15;;;;;;;29.97;27.87;96731.47;5074635;28;20471;-26
2022/07/05 04:18:41;;;;;;;8.80;2.60;;;;;;;29.95;27.49;96722.84;5074646;28;20028;-27
2022/07/05 04:21:06;;;;;;;8.15;2.83;;;;;;;29.93;27.60;96731.03;5074608;28;20016;-26
2022/07/05 04:23:32;;;;;;;9.18;2.42;;;;;;;29.92;27.96;96724.69;5073492;28;20516;-26
2022/07/05 04:25:59;;;;;;;13.50;2.80;;;;;;;29.95;27.88;96726.38;5074484;28;20032;-26
2022/07/05 04:28:25;;;;;;;10.15;2.83;;;;;;;29.88;27.74;96735.47;5074730;28;20086;-26
2022/07/05 04:30:52;;;;;;;7.47;2.67;;;;;;;29.94;28.01;96743.72;5074284;28;20028;-26
2022/07/05 04:33:17;;;;;;;9.65;3.22;;;;;;;29.93;27.99;96742.22;5074497;28;20028;-26
2022/07/05 04:35:43;;;;;;;11.98;2.95;;;;;;;29.87;27.91;96739.56;5074493;28;20070;-26
2022/07/05 04:38:08;;;;;;;3.95;2.40;;;;;;;29.91;27.85;96745.56;5073460;28;20028;-26
2022/07/05 04:40:34;;;;;;;9.15;2.60;;;;;;;29.94;27.99;96747.25;5074329;28;20370;-26
2022/07/05 04:42:59;;;;;;;9.68;2.55;;;;;;;29.93;27.89;96745.00;5074212;28;20021;-26
2022/07/05 04:45:24;;;;;;;12.18;2.78;;;;;;;29.96;27.99;96747.47;5074484;28;20024;-26
2022/07/05 04:47:50;;;;;;;7.05;2.45;;;;;;;29.93;28.12;96745.75;5072831;28;20078;-26
2022/07/05 04:50:15;;;;;;;8.27;2.40;;;;;;;29.98;28.05;96753.28;5074262;28;20047;-26
2022/07/05 04:52:41;;;;;;;5.95;2.10;;;;;;;29.89;28.10;96759.34;5073992;28;20020;-26
2022/07/05 04:55:07;;;;;;;6.05;2.15;;;;;;;29.89;28.35;96753.75;5074139;28;20378;-26
2022/07/05 04:57:40;;;;;;;8.90;2.70;;;;;;;29.88;28.06;96748.72;5074048;28;20425;-26
2022/07/05 05:00:07;;;;;;;5.28;2.40;;;;;;;29.92;28.42;96763.81;5074114;28;20535;-28
2022/07/05 05:02:34;;;;;;;7.68;2.15;;;;;;;29.93;28.36;96759.72;5073727;28;20028;-26
2022/07/05 05:04:59;;;;;;;9.52;2.70;;;;;;;29.91;28.14;96767.19;5074040;28;20020;-26
2022/07/05 05:07:25;;;;;;;6.30;2.35;;;;;;;29.92;28.73;96757.50;5086202;28;20046;-27
2022/07/05 05:09:50;;;;;;;5.47;2.15;;;;;;;29.87;28.52;96761.19;5086491;28;20035;-26
2022/07/05 05:12:16;;;;;;;7.03;2.55;;;;;;;29.89;28.75;96767.75;5075286;28;20027;-26
2022/07/05 05:14:41;;;;;;;4.20;2.25;;;;;;;29.85;28.72;96761.00;5074728;28;20016;-26
2022/07/05 05:17:06;;;;;;;5.47;2.33;;;;;;;29.88;28.74;96762.69;5082080;28;20059;-27
2022/07/05 05:19:32;;;;;;;6.72;2.63;;;;;;;29.84;28.60;96773.47;5093725;28;20429;-27
2022/07/05 05:21:57;;;;;;;5.57;2.78;;;;;;;29.82;29.00;96764.88;5083438;28;20015;-26
2022/07/05 05:24:23;;;;;;;5.93;2.75;;;;;;;29.82;28.96;96770.47;5077851;28;20028;-26
2022/07/05 05:26:49;;;;;;;7.88;2.40;;;;;;;29.88;29.24;96777.44;5083244;28;20039;-28
2022/07/05 05:29:14;;;;;;;10.30;2.83;;;;;;;29.82;29.24;96776.06;5091510;28;20385;-26
2022/07/05 05:31:40;;;;;;;13.02;3.40;;;;;;;29.84;29.17;96781.84;5072458;28;20039;-27
2022/07/05 05:34:05;;;;;;;9.07;2.92;;;;;;;29.85;29.17;96786.91;5071281;28;20028;-26
2022/07/05 05:36:31;;;;;;;7.03;2.47;;;;;;;29.90;29.05;96785.25;5070954;28;20378;-26
2022/07/05 05:38:56;;;;;;;7.13;2.67;;;;;;;29.88;29.13;96787.84;5071232;28;20107;-26
2022/07/05 05:41:22;;;;;;;6.80;2.53;;;;;;;29.83;29.39;96797.88;5070683;28;20024;-26
2022/07/05 05:43:47;;;;;;;4.82;2.30;;;;;;;29.88;29.10;96796.25;5089529;28;20024;-26
2022/07/05 05:46:13;;;;;;;7.22;2.53;;;;;;;29.85;29.20;96786.16;5091476;28;20357;-26
2022/07/05 05:48:38;;;;;;;11.07;3.35;;;;;;;29.92;29.21;96791.06;5091056;28;20055;-26
2022/07/05 05:51:04;;;;;;;9.00;2.50;;;;;;;29.94;29.10;96799.63;5091447;28;20024;-26
2022/07/05 05:53:30;;;;;;;9.55;2.50;;;;;;;29.93;29.25;96800.94;5091543;28;20020;-26
2022/07/05 05:55:55;;;;;;;10.68;2.67;;;;;;;29.87;29.07;96798.28;5091511;28;20039;-27
2022/07/05 05:58:25;;;;;;;5.32;2.15;;;;;;;29.87;29.45;96800.34;5091184;28;20077;-26
2022/07/05 06:00:52;;;;;;;7.82;2.90;;;;;;;29.89;29.58;96797.75;5091216;28;20028;-26
2022/07/05 06:03:25;;;;;;;9.25;2.60;;;;;;;29.87;29.19;96806.69;5091451;28;20079;-26
2022/07/05 06:05:51;;;;;;;8.68;2.40;;;;;;;29.86;29.56;96801.63;5091162;28;20075;-26
2022/07/05 06:08:18;;;;;;;7.13;2.50;;;;;;;29.87;29.22;96800.34;5091403;28;20048;-26
2022/07/05 06:10:45;;;;;;;10.18;3.22;;;;;;;29.92;29.53;96802.25;5089834;28;20055;-26
2022/07/05 06:13:12;;;;;;;8.77;2.70;;;;;;;29.91;29.57;96811.94;5091123;28;20040;-26
2022/07/05 06:15:38;;;;;;;4.95;2.33;;;;;;;29.87;29.28;96815.06;5091274;28;20020;-26
2022/07/05 06:18:04;;;;;;;7.90;2.30;;;;;;;29.88;29.42;96807.44;5089875;28;20498;-26
2022/07/05 06:20:32;;;;;;;6.80;2.50;;;;;;;29.85;29.63;96808.50;5071075;28;20086;-27
2022/07/05 06:22:59;;;;;;;4.97;2.28;;;;;;;29.90;29.32;96802.03;5071023;28;20098;-26
2022/07/05 06:25:25;;;;;;;8.00;2.30;;;;;;;29.87;29.31;96801.09;5070738;28;20367;-26
2022/07/05 06:27:53;;;;;;;5.38;2.47;;;;;;;29.86;29.39;96810.78;5070893;28;20179;-26
2022/07/05 06:30:21;;;;;;;5.25;2.28;;;;;;;29.74;29.18;96803.22;5070665;28;20032;-27
2022/07/05 06:32:48;;;;;;;6.60;2.33;;;;;;;29.84;29.35;96804.97;5070795;28;20021;-26
2022/07/05 06:35:14;;;;;;;5.35;2.33;;;;;;;29.80;29.22;96809.41;5071643;28;20028;-26
2022/07/05 06:37:43;;;;;;;6.13;2.20;;;;;;;29.89;29.49;96808.94;5071876;28;20036;-27
2022/07/05 06:40:11;;;;;;;5.97;2.28;;;;;;;29.87;29.56;96806.69;5071581;28;20035;-26
2022/07/05 06:42:36;;;;;;;6.18;2.38;;;;;;;29.91;29.55;96820.31;5070853;28;20036;-26
2022/07/05 06:45:02;;;;;;;6.10;2.08;;;;;;;29.82;29.26;96806.81;5070773;28;20078;-26
2022/07/05 06:47:27;;;;;;;7.60;2.20;;;;;;;29.84;29.79;96813.34;5070507;28;20103;-27
2022/07/05 06:49:53;;;;;;;4.57;2.10;;;;;;;29.75;28.85;96813.09;5070808;28;20031;-28
2022/07/05 06:52:18;;;;;;;6.10;2.15;;;;;;;29.84;29.63;96818.19;5070653;28;20055;-26
2022/07/05 06:54:44;;;;;;;5.97;2.45;;;;;;;29.12;30.38;96812.28;5070429;28;20038;-28
2022/07/05 06:57:10;;;;;;;8.27;2.72;;;;;;;29.28;29.83;96813.94;5070433;28;20115;-28
2022/07/05 06:59:36;;;;;;;6.22;2.38;;;;;;;29.39;29.41;96813.72;5070205;28;20048;-27
2022/07/05 07:02:02;;;;;;;5.30;2.20;;;;;;;29.46;29.29;96824.19;5072736;28;20447;-28
2022/07/05 07:04:27;;;;;;;6.68;2.22;;;;;;;29.52;28.96;96822.03;5083014;28;20060;-29
2022/07/05 07:06:53;;;;;;;6.90;2.08;;;;;;;29.50;29.20;96812.69;5083596;28;20047;-28
2022/07/05 07:09:18;;;;;;;7.50;2.40;;;;;;;29.57;29.19;96812.75;5080742;28;20054;-28
2022/07/05 07:11:48;;;;;;;5.28;2.08;;;;;;;29.62;29.33;96814.66;5076413;28;20520;-28
2022/07/05 07:14:17;;;;;;;7.38;2.25;;;;;;;29.39;28.96;96818.53;5085895;28;20028;-28
2022/07/05 07:16:43;;;;;;;8.00;2.22;;;;;;;29.28;29.26;96816.75;5096269;28;20020;-29
2022/07/05 07:19:09;;;;;;;10.00;2.88;;;;;;;29.34;29.08;96811.75;5096131;28;20039;-29
2022/07/05 07:21:34;;;;;;;7.00;2.25;;;;;;;29.51;28.97;96817.75;5096167;28;20482;-28
2022/07/05 07:24:00;;;;;;;4.47;2.15;;;;;;;29.36;29.08;96814.75;5095981;28;20035;-28
2022/07/05 07:26:26;;;;;;;8.80;2.13;;;;;;;29.39;29.17;96816.50;5096400;28;20052;-28
2022/07/05 07:28:51;;;;;;;6.32;2.38;;;;;;;29.53;28.58;96817.94;5096059;28;20063;-28
2022/07/05 07:31:17;;;;;;;9.45;2.30;;;;;;;29.44;29.05;96824.00;5095816;28;20024;-28
2022/07/05 07:33:42;;;;;;;4.65;2.00;;;;;;;29.54;28.93;96819.44;5096116;28;20024;-28
2022/07/05 07:36:08;;;;;;;5.75;2.13;;;;;;;29.40;29.17;96826.38;5095845;28;20020;-28
2022/07/05 07:38:33;;;;;;;5.72;2.00;;;;;;;29.47;29.51;96817.31;5095945;28;20371;-28
2022/07/05 07:41:00;;;;;;;6.88;2.28;;;;;;;29.37;29.02;96815.50;5095673;28;20466;-28
2022/07/05 07:43:26;;;;;;;8.85;2.00;;;;;;;29.43;29.32;96819.69;5095757;28;20027;-28
2022/07/05 07:45:52;;;;;;;4.13;1.95;;;;;;;29.35;29.33;96818.09;5095758;28;20024;-29
2022/07/05 07:48:18;;;;;;;8.77;2.20;;;;;;;29.34;29.44;96808.97;5095480;28;20413;-28
2022/07/05 07:50:44;;;;;;;11.13;2.30;;;;;;;29.44;29.57;96814.84;5095495;28;20101;-28
2022/07/05 07:53:09;;;;;;;4.75;2.33;;;;;;;29.29;29.89;96810.63;5095583;28;20066;-29
2022/07/05 07:55:35;;;;;;;7.75;2.60;;;;;;;29.33;29.27;96809.50;5095483;28;20097;-28
2022/07/05 07:58:00;;;;;;;5.82;2.80;;;;;;;29.44;29.60;96801.63;5095325;28;20095;-28
2022/07/05 08:00:26;;;;;;;5.75;2.50;;;;;;;29.57;29.22;96809.97;5095412;28;20027;-28
2022/07/05 08:02:52;;;;;;;7.35;2.42;;;;;;;29.56;29.38;96805.66;5095348;28;20038;-29
2022/07/05 08:05:17;;;;;;;5.13;1.98;;;;;;;29.51;29.48;96809.34;5095223;28;20031;-28
2022/07/05 08:07:42;;;;;;;10.95;2.45;;;;;;;29.56;29.08;96804.91;5095106;28;20040;-28
2022/07/05 08:10:08;;;;;;;4.82;2.30;;;;;;;29.64;29.29;96809.28;5095387;28;20026;-29
2022/07/05 08:12:34;;;;;;;3.50;2.40;;;;;;;29.67;29.43;96798.31;5095032;28;20450;-29
2022/07/05 08:14:59;;;;;;;6.45;2.08;;;;;;;29.60;29.55;96803.28;5095319;28;20024;-29
2022/07/05 08:17:25;;;;;;;5.63;2.08;;;;;;;29.60;29.49;96800.50;5093780;28;20039;-29
2022/07/05 08:22:34;;;;;;;6.00;2.33;;;;;;;29.57;29.71;96800.81;5095070;28;20023;-28
2022/07/05 08:25:00;;;;;;;7.10;2.28;;;;;;;29.58;29.48;96797.47;5094881;28;20374;-28
2022/07/05 08:27:25;;;;;;;3.83;2.10;;;;;;;29.59;29.37;96803.81;5094758;28;20028;-28
2022/07/05 08:29:51;;;;;;;6.50;2.22;;;;;;;29.44;29.52;96801.63;5094739;28;20027;-28
2022/07/05 08:32:18;;;;;;;7.38;2.35;;;;;;;29.57;29.27;96809.97;5094538;28;20447;-28
2022/07/05 08:34:43;;;;;;;6.55;2.90;;;;;;;29.47;29.08;96802.59;5094919;28;20030;-28
2022/07/05 08:37:09;;;;;;;6.47;2.55;;;;;;;29.59;29.32;96801.78;5094797;28;20496;-28
2022/07/05 08:39:35;;;;;;;6.43;2.10;;;;;;;29.48;29.16;96798.50;5094442;28;20016;-28
2022/07/05 08:42:01;;;;;;;3.30;2.10;;;;;;;29.53;29.08;96798.38;5094464;28;20035;-28
2022/07/05 08:44:33;;;;;;;10.13;2.47;;;;;;;29.54;29.59;96790.75;5094406;28;20031;-28
2022/07/05 08:47:02;;;;;;;4.47;2.45;;;;;;;29.48;29.32;96799.25;5094744;28;20035;-28
2022/07/05 08:49:30;;;;;;;6.80;1.98;;;;;;;29.47;29.28;96792.16;5094570;28;20031;-29
2022/07/05 08:51:56;;;;;;;5.60;2.55;;;;;;;29.42;27.83;96795.88;5094053;28;20389;-28
2022/07/05 08:54:23;;;;;;;4.88;2.20;;;;;;;29.53;29.54;96790.00;5094248;28;20020;-28
2022/07/05 08:56:50;;;;;;;6.28;2.40;;;;;;;29.59;29.14;96790.59;5094287;28;20035;-29
2022/07/05 08:59:15;;;;;;;4.55;2.20;;;;;;;29.50;29.46;96802.25;5094255;28;20023;-28
2022/07/05 09:01:41;;;;;;;5.72;2.20;;;;;;;29.47;28.83;96802.59;5094338;28;20027;-28
2022/07/05 09:04:09;;;;;;;5.57;2.00;;;;;;;29.50;29.32;96801.50;5092398;28;20024;-28
2022/07/05 09:06:37;;;;;;;5.85;2.28;;;;;;;29.57;28.99;96795.97;5092807;28;20134;-29
2022/07/05 09:09:04;;;;;;;5.80;2.40;;;;;;;29.58;29.13;96797.47;5094030;28;20037;-28
2022/07/05 09:11:40;;;;;;;7.93;2.03;;;;;;;29.61;28.91;96796.41;5094124;28;20089;-30
2022/07/05 09:14:17;;;;;;;6.53;1.85;;;;;;;29.64;28.75;96798.13;5093864;28;20401;-30
2022/07/05 09:16:43;;;;;;;7.68;2.60;;;;;;;29.57;28.85;96795.97;5094111;28;20389;-28
2022/07/05 09:19:09;;;;;;;4.80;2.63;;;;;;;29.59;28.97;96796.19;5093688;28;20032;-29
2022/07/05 09:21:35;;;;;;;10.70;2.70;;;;;;;29.60;29.05;96799.75;5093753;28;20060;-29
2022/07/05 09:24:02;;;;;;;8.63;2.20;;;;;;;29.60;29.06;96799.75;5093217;28;20034;-28
2022/07/05 09:26:52;;;;;;;4.85;2.22;;;;;;;29.55;29.27;96801.38;5094369;28;20031;-28
2022/07/05 09:29:19;;;;;;;6.28;2.10;;;;;;;29.62;29.02;96800.69;5093684;28;20028;-28
2022/07/05 09:31:48;;;;;;;8.07;2.30;;;;;;;29.63;29.19;96807.78;5093708;28;20036;-28
2022/07/05 09:34:19;;;;;;;5.35;2.00;;;;;;;29.58;28.82;96803.06;5093622;28;20030;-28
2022/07/05 09:37:01;;;;;;;6.35;2.47;;;;;;;29.59;29.03;96806.63;5093831;28;20103;-29
2022/07/05 09:39:29;;;;;;;6.60;2.10;;;;;;;29.57;28.99;96798.78;5093852;28;20035;-28
2022/07/05 09:42:21;;;;;;;11.45;2.50;;;;;;;29.60;28.96;96794.91;5093379;28;20466;-28
2022/07/05 09:44:52;;;;;;;3.30;1.75;;;;;;;29.57;29.07;96792.44;5093884;28;20094;-28
2022/07/05 09:47:37;;;;;;;5.00;1.98;;;;;;;29.58;28.65;96791.91;5093437;28;20024;-28
2022/07/05 09:50:07;;;;;;;6.15;2.15;;;;;;;29.63;28.75;96805.00;5093652;28;20103;-29
2022/07/05 09:52:37;;;;;;;5.18;2.00;;;;;;;29.64;28.83;96800.16;5093477;28;20028;-29
2022/07/05 09:55:05;;;;;;;6.70;2.15;;;;;;;29.58;28.73;96803.06;5093635;28;20063;-28
2022/07/05 09:57:32;;;;;;;5.20;2.00;;;;;;;29.63;28.82;96801.44;5077426;28;20139;-29
2022/07/05 10:00:00;;;;;;;7.18;2.13;;;;;;;29.60;28.78;96802.53;5091408;28;20032;-29
2022/07/05 10:02:42;;;;;;;7.80;2.53;;;;;;;29.53;28.93;96798.38;5083373;28;20078;-28
2022/07/05 10:05:24;;;;;;;4.80;2.05;;;;;;;29.60;28.69;96806.06;5071163;28;20063;-28
2022/07/05 10:07:54;;;;;;;4.45;1.92;;;;;;;29.61;28.85;96799.19;5069255;28;20040;-29
2022/07/05 10:10:22;;;;;;;5.93;2.13;;;;;;;29.67;28.60;96787.13;5070953;28;20063;-28
2022/07/05 10:12:49;;;;;;;4.68;2.42;;;;;;;29.69;28.19;96787.31;5071063;28;20403;-28
2022/07/05 10:15:23;;;;;;;5.65;2.47;;;;;;;29.67;28.55;96783.03;5084190;28;20055;-29
2022/07/05 10:18:17;;;;;;;6.07;2.30;;;;;;;29.64;28.39;96786.94;5091205;28;20177;-28
2022/07/05 10:20:44;;;;;;;3.90;1.85;;;;;;;29.62;28.48;96775.53;5090671;28;20024;-28
2022/07/05 10:23:12;;;;;;;6.00;2.20;;;;;;;29.62;28.41;96774.78;5090990;28;20458;-28
2022/07/05 10:25:40;;;;;;;4.47;1.80;;;;;;;29.62;28.15;96774.78;5090865;28;20028;-28
2022/07/05 10:28:07;;;;;;;7.30;2.05;;;;;;;29.60;27.88;96775.34;5090906;28;20123;-28
2022/07/05 10:30:34;;;;;;;6.63;2.10;;;;;;;29.67;27.96;96778.75;5090558;28;20662;-29
2022/07/05 10:33:03;;;;;;;6.93;2.38;;;;;;;29.70;27.83;96783.97;5072764;28;20127;-28
2022/07/05 10:35:29;;;;;;;7.97;2.33;;;;;;;29.64;27.49;96772.94;5072766;28;20033;-28
2022/07/05 10:37:55;;;;;;;6.35;2.15;;;;;;;29.75;27.89;96776.75;5076568;28;20021;-29
2022/07/05 10:40:21;;;;;;;7.13;2.25;;;;;;;29.77;27.58;96771.38;5076008;28;20356;-28
2022/07/05 10:42:50;;;;;;;4.72;2.20;;;;;;;29.75;27.54;96776.75;5076470;28;20110;-28
2022/07/05 10:45:28;;;;;;;7.65;2.22;;;;;;;29.74;27.61;96776.00;5076729;28;20024;-31
2022/07/05 10:48:21;;;;;;;5.22;2.30;;;;;;;29.78;27.38;96775.66;5076448;28;20119;-28
2022/07/05 10:51:10;;;;;;;12.00;2.08;;;;;;;29.85;27.50;96777.75;5075749;28;20119;-28
2022/07/05 10:53:35;;;;;;;5.07;1.95;;;;;;;29.77;27.64;96768.56;5076816;28;20020;-28
2022/07/05 10:56:03;;;;;;;7.40;2.30;;;;;;;29.84;27.37;96759.50;5076431;28;20028;-29
2022/07/05 10:58:40;;;;;;;4.55;1.70;;;;;;;29.83;27.49;96763.56;5076275;28;20070;-28
2022/07/05 11:01:11;;;;;;;6.82;2.00;;;;;;;29.68;27.60;96767.00;5076341;28;20020;-28
2022/07/05 11:03:46;;;;;;;9.85;1.75;;;;;;;29.76;27.60;96764.28;5076320;28;20028;-29
2022/07/05 11:06:22;;;;;;;7.60;2.50;;;;;;;29.78;27.94;96759.66;5075893;28;20053;-30
2022/07/05 11:08:59;;;;;;;8.23;2.10;;;;;;;29.97;26.89;96765.00;5076114;28;20024;-25
2022/07/05 11:11:27;;;;;;;8.18;2.70;;;;;;;30.28;26.55;96760.38;5075715;28;20032;-28
2022/07/05 11:13:55;;;;;;;12.25;2.40;;;;;;;29.88;27.20;96757.09;5075871;28;20032;-28
2022/07/05 11:16:22;;;;;;;8.98;2.40;;;;;;;29.78;27.67;96759.66;5075238;28;20028;-28
2022/07/05 11:18:51;;;;;;;9.45;2.33;;;;;;;29.83;27.57;96766.38;5075715;28;20020;-28
2022/07/05 11:21:22;;;;;;;10.93;2.17;;;;;;;29.95;27.56;96768.31;5074611;28;20471;-28
2022/07/05 11:23:47;;;;;;;11.00;2.28;;;;;;;29.87;27.53;96750.75;5075518;28;20024;-28
2022/07/05 11:26:16;;;;;;;8.07;2.45;;;;;;;29.96;27.38;96757.91;5075737;28;20027;-28
2022/07/05 11:28:43;;;;;;;6.93;2.22;;;;;;;29.97;27.36;96754.59;5075810;28;20045;-28
2022/07/05 11:31:09;;;;;;;5.78;1.98;;;;;;;29.96;27.35;96746.72;5077214;28;20036;-29
2022/07/05 11:33:44;;;;;;;8.70;2.15;;;;;;;29.87;27.56;96741.63;5092036;28;20474;-28